Time;durP1;ratioP1;P1;durP2;ratioP2;P2;SDS_P1;SDS_P2;PMS_P1;PMS_P2;Temp;Humidity;BMP_temperature;BMP_pressure;BME280_temperature;BME280_humidity;BME280_pressure;Samples;Min_cycle;Max_cycle;Signal;HPM_P1;HPM_P2
2022/08/27 00:00:28;;;;;;;7.18;3.47;;;;;;;;;;5022111;28;20034;-78
2022/08/27 00:02:54;;;;;;;6.78;3.72;;;;;;;;;;5017015;28;20037;-78
2022/08/27 00:05:21;;;;;;;6.80;3.47;;;;;;;;;;5021285;28;20032;-78
2022/08/27 00:07:47;;;;;;;6.15;3.15;;;;;;;;;;5023005;28;20026;-78
2022/08/27 00:10:16;;;;;;;5.88;3.47;;;;;;;;;;5024897;28;20060;-78
2022/08/27 00:12:42;;;;;;;6.65;3.05;;;;;;;;;;5015912;28;20061;-77
2022/08/27 00:15:10;;;;;;;6.15;3.40;;;;;;;;;;5023797;28;20033;-78
2022/08/27 00:17:36;;;;;;;6.22;3.42;;;;;;;;;;5024170;28;20045;-78
2022/08/27 00:20:03;;;;;;;5.93;3.30;;;;;;;;;;5000967;28;20093;-78
2022/08/27 00:22:29;;;;;;;6.65;3.20;;;;;;;;;;5008156;28;20033;-78
2022/08/27 00:24:55;;;;;;;6.60;3.80;;;;;;;;;;5018693;28;20034;-78
2022/08/27 00:27:21;;;;;;;6.78;3.53;;;;;;;;;;5019210;28;20061;-78
2022/08/27 00:29:47;;;;;;;6.22;3.67;;;;;;;;;;5017692;28;20030;-78
2022/08/27 00:32:14;;;;;;;6.95;3.70;;;;;;;;;;5008158;28;20454;-78
2022/08/27 00:34:40;;;;;;;5.95;3.67;;;;;;;;;;5009539;28;20034;-78
2022/08/27 00:37:07;;;;;;;6.93;3.72;;;;;;;;;;5019148;28;20080;-78
2022/08/27 00:39:35;;;;;;;5.53;3.20;;;;;;;;;;5018275;28;20069;-78
2022/08/27 00:42:01;;;;;;;5.28;3.20;;;;;;;;;;5011642;28;20033;-78
2022/08/27 00:44:27;;;;;;;6.22;3.80;;;;;;;;;;5006574;28;20478;-78
2022/08/27 00:47:00;;;;;;;7.00;3.70;;;;;;;;;;5004803;28;20042;-78
2022/08/27 00:49:32;;;;;;;7.68;3.83;;;;;;;;;;5007733;28;20411;-78
2022/08/27 00:52:00;;;;;;;7.20;3.33;;;;;;;;;;5012077;28;20049;-78
2022/08/27 00:54:29;;;;;;;5.57;3.50;;;;;;;;;;5010252;28;20043;-78
2022/08/27 00:56:57;;;;;;;7.15;3.78;;;;;;;;;;5019767;28;20108;-78
2022/08/27 00:59:24;;;;;;;7.03;3.53;;;;;;;;;;5019491;28;20034;-78
2022/08/27 01:04:36;;;;;;;6.38;3.42;;;;;;;;;;5016716;28;20044;-78
2022/08/27 01:07:03;;;;;;;6.80;3.25;;;;;;;;;;5018987;28;20022;-78
2022/08/27 01:09:29;;;;;;;8.75;3.80;;;;;;;;;;5009615;28;20037;-78
2022/08/27 01:11:56;;;;;;;6.65;3.72;;;;;;;;;;5012760;28;20022;-78
2022/08/27 01:14:23;;;;;;;6.53;4.00;;;;;;;;;;5004199;28;20037;-78
2022/08/27 01:16:54;;;;;;;6.55;4.30;;;;;;;;;;5017033;28;20038;-78
2022/08/27 01:19:27;;;;;;;6.07;4.05;;;;;;;;;;5018498;28;20056;-78
2022/08/27 01:21:57;;;;;;;7.20;4.20;;;;;;;;;;5017348;28;20473;-78
2022/08/27 01:24:41;;;;;;;6.82;4.25;;;;;;;;;;5010312;28;20032;-78
2022/08/27 01:27:09;;;;;;;5.97;3.90;;;;;;;;;;5018411;28;20072;-78
2022/08/27 01:29:36;;;;;;;5.88;3.53;;;;;;;;;;5004454;28;20125;-78
2022/08/27 01:32:08;;;;;;;6.05;3.50;;;;;;;;;;5009920;28;20048;-78
2022/08/27 01:34:34;;;;;;;6.15;4.15;;;;;;;;;;5004184;28;20026;-78
2022/08/27 01:37:01;;;;;;;6.53;3.70;;;;;;;;;;5016992;28;20038;-78
2022/08/27 01:39:27;;;;;;;6.78;3.97;;;;;;;;;;5003748;28;20034;-77
2022/08/27 01:41:53;;;;;;;6.75;4.20;;;;;;;;;;4999385;28;20026;-77
2022/08/27 01:44:19;;;;;;;6.03;3.72;;;;;;;;;;5001406;28;20018;-78
2022/08/27 01:46:45;;;;;;;5.30;3.83;;;;;;;;;;5018362;28;20053;-78
2022/08/27 01:49:11;;;;;;;6.80;3.90;;;;;;;;;;5017465;28;20018;-78
2022/08/27 01:51:38;;;;;;;7.38;4.07;;;;;;;;;;5010971;28;20601;-78
2022/08/27 01:54:04;;;;;;;6.43;3.95;;;;;;;;;;5010001;28;20034;-78
2022/08/27 01:56:30;;;;;;;7.75;3.50;;;;;;;;;;5012582;28;20030;-78
2022/08/27 01:58:56;;;;;;;6.80;3.90;;;;;;;;;;5017161;28;20036;-78
2022/08/27 02:01:22;;;;;;;9.35;3.70;;;;;;;;;;5011667;28;20030;-78
2022/08/27 02:03:48;;;;;;;6.95;3.45;;;;;;;;;;5016448;28;20025;-78
2022/08/27 02:06:14;;;;;;;6.43;3.80;;;;;;;;;;5005651;28;20018;-78
2022/08/27 02:08:40;;;;;;;6.07;3.63;;;;;;;;;;5017471;28;20026;-78
2022/08/27 02:11:07;;;;;;;5.25;3.08;;;;;;;;;;4996152;28;20101;-79
2022/08/27 02:13:33;;;;;;;5.68;3.42;;;;;;;;;;5002221;28;20057;-79
2022/08/27 02:15:59;;;;;;;7.35;4.30;;;;;;;;;;5019645;28;20041;-79
2022/08/27 02:18:25;;;;;;;6.55;3.90;;;;;;;;;;5017910;28;20052;-79
2022/08/27 02:20:51;;;;;;;7.53;4.13;;;;;;;;;;5010680;28;20113;-79
2022/08/27 02:23:17;;;;;;;7.90;4.03;;;;;;;;;;5002528;28;20026;-79
2022/08/27 02:25:46;;;;;;;6.72;4.00;;;;;;;;;;5002636;28;20419;-78
2022/08/27 02:28:12;;;;;;;8.57;3.92;;;;;;;;;;5021833;28;20109;-79
2022/08/27 02:30:38;;;;;;;7.05;4.07;;;;;;;;;;5020769;28;20026;-79
2022/08/27 02:33:04;;;;;;;6.63;4.00;;;;;;;;;;5018454;28;20053;-79
2022/08/27 02:35:31;;;;;;;6.10;3.38;;;;;;;;;;5022798;28;20616;-79
2022/08/27 02:37:58;;;;;;;6.68;4.00;;;;;;;;;;5020083;28;20042;-79
2022/08/27 02:40:24;;;;;;;7.35;3.88;;;;;;;;;;5021583;28;20103;-79
2022/08/27 02:42:51;;;;;;;7.85;3.78;;;;;;;;;;5003473;28;20029;-78
2022/08/27 02:45:17;;;;;;;8.20;4.15;;;;;;;;;;5022191;28;20084;-80
2022/08/27 02:47:44;;;;;;;6.38;3.90;;;;;;;;;;5010481;28;20060;-79
2022/08/27 02:50:10;;;;;;;6.70;4.47;;;;;;;;;;4994155;28;20097;-79
2022/08/27 02:52:36;;;;;;;6.25;4.15;;;;;;;;;;5003479;28;20031;-79
2022/08/27 02:55:02;;;;;;;6.80;3.88;;;;;;;;;;5002220;28;20037;-80
2022/08/27 02:57:30;;;;;;;8.20;4.18;;;;;;;;;;5017177;28;20030;-79
2022/08/27 02:59:56;;;;;;;6.90;4.10;;;;;;;;;;5015284;28;20034;-79
2022/08/27 03:02:22;;;;;;;7.30;4.03;;;;;;;;;;5012290;28;20036;-79
2022/08/27 03:04:48;;;;;;;6.38;3.97;;;;;;;;;;5017874;28;20047;-80
2022/08/27 03:07:14;;;;;;;6.97;3.88;;;;;;;;;;5020754;28;20085;-80
2022/08/27 03:09:41;;;;;;;7.35;3.92;;;;;;;;;;5020590;28;20061;-79
2022/08/27 03:12:08;;;;;;;7.68;4.10;;;;;;;;;;5019061;28;20024;-79
2022/08/27 03:14:34;;;;;;;7.45;4.57;;;;;;;;;;5021797;28;20148;-79
2022/08/27 03:18:16;;;;;;;8.43;4.68;;;;;;;;;;5021915;28;20046;-79
2022/08/27 03:19:46;;;;;;;7.00;4.25;;;;;;;;;;5022014;28;20059;-79
2022/08/27 03:22:12;;;;;;;7.00;4.32;;;;;;;;;;5018731;28;20049;-79
2022/08/27 03:24:39;;;;;;;7.05;4.50;;;;;;;;;;5010250;28;20018;-79
2022/08/27 03:27:05;;;;;;;6.78;4.25;;;;;;;;;;5019607;28;20097;-79
2022/08/27 03:29:33;;;;;;;8.45;4.63;;;;;;;;;;5009354;28;20066;-78
2022/08/27 03:31:59;;;;;;;6.05;4.00;;;;;;;;;;5022026;28;20026;-78
2022/08/27 03:34:26;;;;;;;8.52;4.60;;;;;;;;;;5018668;28;20142;-79
2022/08/27 03:36:52;;;;;;;7.32;4.38;;;;;;;;;;5010252;28;20034;-79
2022/08/27 03:39:18;;;;;;;6.97;3.97;;;;;;;;;;5003712;28;20094;-79
2022/08/27 03:41:44;;;;;;;7.45;4.43;;;;;;;;;;5002793;28;20042;-79
2022/08/27 03:44:10;;;;;;;7.63;4.35;;;;;;;;;;5007411;28;20029;-79
2022/08/27 03:46:37;;;;;;;7.53;4.53;;;;;;;;;;5020598;28;20446;-79
2022/08/27 03:49:03;;;;;;;7.45;4.32;;;;;;;;;;5003760;28;20101;-79
2022/08/27 03:51:29;;;;;;;8.02;4.57;;;;;;;;;;4986643;28;20045;-79
2022/08/27 03:53:55;;;;;;;7.00;4.53;;;;;;;;;;5013205;28;20026;-79
2022/08/27 03:56:22;;;;;;;7.75;4.78;;;;;;;;;;5021043;28;20018;-79
2022/08/27 03:58:48;;;;;;;8.68;4.80;;;;;;;;;;5019168;28;20529;-79
2022/08/27 04:01:15;;;;;;;6.93;4.70;;;;;;;;;;5024944;28;20486;-80
2022/08/27 04:03:41;;;;;;;7.22;4.32;;;;;;;;;;5007004;28;20022;-79
2022/08/27 04:06:08;;;;;;;9.50;4.80;;;;;;;;;;5008776;28;20104;-79
2022/08/27 04:08:34;;;;;;;7.25;4.95;;;;;;;;;;5007935;28;20058;-79
2022/08/27 04:11:00;;;;;;;8.52;4.63;;;;;;;;;;5021811;28;20068;-79
2022/08/27 04:13:26;;;;;;;9.65;5.30;;;;;;;;;;5019967;28;20041;-79
2022/08/27 04:15:54;;;;;;;8.00;5.05;;;;;;;;;;5026190;28;20109;-79
2022/08/27 04:18:20;;;;;;;10.57;5.32;;;;;;;;;;5022382;28;20465;-79
2022/08/27 04:20:47;;;;;;;9.43;5.15;;;;;;;;;;5025787;28;20041;-79
2022/08/27 04:23:13;;;;;;;12.43;6.80;;;;;;;;;;5026387;28;20026;-79
2022/08/27 04:25:40;;;;;;;9.43;5.75;;;;;;;;;;5016728;28;20080;-79
2022/08/27 04:28:06;;;;;;;7.97;5.43;;;;;;;;;;5022747;28;20034;-79
2022/08/27 04:30:32;;;;;;;8.38;5.35;;;;;;;;;;5023210;28;20022;-79
2022/08/27 04:32:58;;;;;;;9.30;5.25;;;;;;;;;;5016597;28;20080;-78
2022/08/27 04:35:25;;;;;;;10.45;6.22;;;;;;;;;;5024843;28;20022;-79
2022/08/27 04:37:51;;;;;;;9.32;5.80;;;;;;;;;;5023511;28;20022;-79
2022/08/27 04:40:17;;;;;;;10.45;6.65;;;;;;;;;;4999694;28;20034;-80
2022/08/27 04:42:43;;;;;;;10.52;5.82;;;;;;;;;;5014881;28;20021;-79
2022/08/27 04:45:09;;;;;;;9.75;6.30;;;;;;;;;;5024955;28;20081;-79
2022/08/27 04:47:35;;;;;;;9.77;6.05;;;;;;;;;;5025010;28;20025;-79
2022/08/27 04:50:01;;;;;;;10.73;6.63;;;;;;;;;;5021007;28;20092;-79
2022/08/27 04:52:27;;;;;;;9.43;6.63;;;;;;;;;;5019007;28;20033;-78
2022/08/27 04:54:54;;;;;;;9.40;6.90;;;;;;;;;;5023336;28;20044;-79
2022/08/27 04:57:20;;;;;;;10.45;7.13;;;;;;;;;;5016786;28;20049;-79
2022/08/27 04:59:46;;;;;;;9.60;7.18;;;;;;;;;;5018748;28;20389;-79
2022/08/27 05:02:12;;;;;;;9.40;7.00;;;;;;;;;;5017549;28;20173;-79
2022/08/27 05:04:39;;;;;;;10.95;7.78;;;;;;;;;;5019737;28;20057;-79
2022/08/27 05:07:06;;;;;;;11.48;7.68;;;;;;;;;;5009544;28;20027;-79
2022/08/27 05:09:33;;;;;;;10.65;6.18;;;;;;;;;;5007588;28;20030;-79
2022/08/27 05:12:00;;;;;;;11.45;8.02;;;;;;;;;;5010083;28;20026;-79
2022/08/27 05:14:28;;;;;;;10.63;7.78;;;;;;;;;;5003173;28;20023;-79
2022/08/27 05:16:58;;;;;;;10.30;6.60;;;;;;;;;;5020652;28;20065;-79
2022/08/27 05:19:24;;;;;;;10.40;7.03;;;;;;;;;;5020866;28;20030;-80
2022/08/27 05:21:52;;;;;;;13.75;8.07;;;;;;;;;;5003592;28;20080;-79
2022/08/27 05:24:18;;;;;;;11.88;7.68;;;;;;;;;;5017132;28;20068;-79
2022/08/27 05:26:45;;;;;;;10.07;6.88;;;;;;;;;;5018110;28;20516;-79
2022/08/27 05:29:11;;;;;;;10.13;7.35;;;;;;;;;;5016919;28;20041;-79
2022/08/27 05:31:38;;;;;;;9.68;7.22;;;;;;;;;;5017377;28;20033;-79
2022/08/27 05:34:05;;;;;;;11.90;6.93;;;;;;;;;;5017770;28;20087;-78
2022/08/27 05:36:32;;;;;;;10.73;7.55;;;;;;;;;;4996716;28;20037;-78
2022/08/27 05:39:00;;;;;;;10.73;7.45;;;;;;;;;;5012386;28;20081;-78
2022/08/27 05:41:28;;;;;;;12.27;7.60;;;;;;;;;;4992263;28;20034;-78
2022/08/27 05:43:55;;;;;;;11.30;7.80;;;;;;;;;;5016120;28;20017;-78
2022/08/27 05:46:23;;;;;;;13.25;9.00;;;;;;;;;;4999671;28;20113;-78
2022/08/27 05:48:51;;;;;;;11.18;7.90;;;;;;;;;;5016142;28;20473;-79
2022/08/27 05:51:19;;;;;;;13.15;8.00;;;;;;;;;;5021038;28;20080;-78
2022/08/27 05:53:45;;;;;;;10.82;7.47;;;;;;;;;;5020475;28;20495;-79
2022/08/27 05:56:15;;;;;;;10.05;6.80;;;;;;;;;;5017211;28;20034;-79
2022/08/27 06:01:26;;;;;;;13.13;7.78;;;;;;;;;;5004984;28;20091;-78
2022/08/27 06:03:53;;;;;;;10.63;7.90;;;;;;;;;;5017399;28;20030;-78
2022/08/27 06:06:21;;;;;;;10.35;7.78;;;;;;;;;;5000781;28;20033;-79
2022/08/27 06:08:47;;;;;;;11.95;7.60;;;;;;;;;;5014905;28;20022;-79
2022/08/27 06:11:13;;;;;;;10.35;7.55;;;;;;;;;;5017771;28;20564;-79
2022/08/27 06:13:39;;;;;;;11.27;8.32;;;;;;;;;;5019617;28;20018;-78
2022/08/27 06:16:07;;;;;;;10.05;6.38;;;;;;;;;;5007695;28;20030;-78
2022/08/27 06:18:34;;;;;;;12.73;7.95;;;;;;;;;;4996711;28;20061;-78
2022/08/27 06:21:00;;;;;;;10.00;7.15;;;;;;;;;;4998532;28;20068;-79
2022/08/27 06:23:26;;;;;;;10.25;6.50;;;;;;;;;;4999025;28;20029;-78
2022/08/27 06:25:52;;;;;;;9.57;6.65;;;;;;;;;;4989527;28;20026;-79
2022/08/27 06:28:23;;;;;;;10.25;6.72;;;;;;;;;;5008695;28;20384;-79
2022/08/27 06:30:49;;;;;;;9.88;6.50;;;;;;;;;;5006776;28;20072;-78
2022/08/27 06:33:16;;;;;;;10.32;6.43;;;;;;;;;;5014589;28;20029;-78
2022/08/27 06:35:42;;;;;;;9.88;6.75;;;;;;;;;;5014828;28;20026;-78
2022/08/27 06:38:08;;;;;;;10.30;5.90;;;;;;;;;;5011088;28;20270;-79
2022/08/27 06:40:34;;;;;;;10.13;6.80;;;;;;;;;;5014324;28;20033;-78
2022/08/27 06:43:00;;;;;;;10.70;6.22;;;;;;;;;;5017469;28;20061;-80
2022/08/27 06:45:26;;;;;;;10.38;6.75;;;;;;;;;;5018123;28;20057;-79
2022/08/27 06:47:54;;;;;;;10.40;6.70;;;;;;;;;;5016524;28;20041;-79
2022/08/27 06:50:20;;;;;;;9.30;6.25;;;;;;;;;;4989633;28;20122;-79
2022/08/27 06:52:46;;;;;;;9.27;6.05;;;;;;;;;;5008437;28;20049;-79
2022/08/27 06:55:12;;;;;;;14.23;6.35;;;;;;;;;;5015072;28;20052;-80
2022/08/27 06:57:38;;;;;;;8.50;5.90;;;;;;;;;;5014849;28;20045;-81
2022/08/27 07:00:06;;;;;;;7.63;5.20;;;;;;;;;;5014447;28;20049;-80
2022/08/27 07:02:32;;;;;;;8.18;5.90;;;;;;;;;;5015562;28;20026;-80
2022/08/27 07:04:59;;;;;;;8.80;5.50;;;;;;;;;;5017233;28;20025;-80
2022/08/27 07:07:25;;;;;;;8.77;6.05;;;;;;;;;;5018414;28;20029;-80
2022/08/27 07:09:51;;;;;;;8.43;5.05;;;;;;;;;;5012892;28;20042;-80
2022/08/27 07:12:17;;;;;;;8.13;5.78;;;;;;;;;;5016309;28;20029;-80
2022/08/27 07:14:43;;;;;;;8.15;5.57;;;;;;;;;;5002172;28;20492;-79
2022/08/27 07:17:09;;;;;;;7.45;5.38;;;;;;;;;;5021006;28;20434;-80
2022/08/27 07:19:37;;;;;;;7.97;5.70;;;;;;;;;;5017443;28;20394;-80
2022/08/27 07:22:03;;;;;;;7.60;5.93;;;;;;;;;;5023397;28;20041;-80
2022/08/27 07:24:29;;;;;;;8.38;5.55;;;;;;;;;;5027824;28;20026;-79
2022/08/27 07:26:56;;;;;;;8.15;6.03;;;;;;;;;;5023851;28;20074;-79
2022/08/27 07:29:22;;;;;;;9.93;5.90;;;;;;;;;;5018552;28;20023;-80
2022/08/27 07:31:48;;;;;;;8.27;5.80;;;;;;;;;;5018891;28;20453;-79
2022/08/27 07:34:14;;;;;;;8.48;6.28;;;;;;;;;;5023995;28;20022;-80
2022/08/27 07:36:40;;;;;;;8.50;5.85;;;;;;;;;;5030079;28;20552;-80
2022/08/27 07:39:06;;;;;;;8.55;6.25;;;;;;;;;;5029735;28;20033;-80
2022/08/27 07:44:23;;;;;;;9.10;5.90;;;;;;;;;;5029248;28;20037;-79
2022/08/27 07:44:25;;;;;;;8.70;5.45;;;;;;;;;;5023900;28;20053;-80
2022/08/27 07:46:51;;;;;;;;;;;;;;;;;;5029957;28;21497;-79
2022/08/27 07:49:18;;;;;;;7.97;5.70;;;;;;;;;;5027745;28;19917;-80
2022/08/27 07:51:44;;;;;;;8.02;5.88;;;;;;;;;;5029969;28;20033;-80
2022/08/27 07:54:10;;;;;;;8.57;5.38;;;;;;;;;;5029960;28;20572;-80
2022/08/27 07:56:36;;;;;;;8.98;6.13;;;;;;;;;;5027777;28;20030;-80
2022/08/27 07:59:02;;;;;;;8.10;5.97;;;;;;;;;;5022868;28;20048;-78
2022/08/27 08:01:29;;;;;;;7.95;5.78;;;;;;;;;;5024437;28;20040;-79
2022/08/27 08:03:56;;;;;;;8.35;6.07;;;;;;;;;;5022946;28;20674;-79
2022/08/27 08:06:22;;;;;;;7.20;5.47;;;;;;;;;;5021073;28;20690;-79
2022/08/27 08:08:48;;;;;;;7.90;5.70;;;;;;;;;;5018634;28;20026;-79
2022/08/27 08:11:15;;;;;;;7.43;4.97;;;;;;;;;;5018813;28;20056;-79
2022/08/27 08:13:41;;;;;;;8.10;5.70;;;;;;;;;;5000610;28;20026;-78
2022/08/27 08:16:08;;;;;;;8.15;5.32;;;;;;;;;;5016925;28;20029;-78
2022/08/27 08:18:36;;;;;;;8.57;5.70;;;;;;;;;;4992208;28;20030;-78
2022/08/27 08:21:03;;;;;;;7.43;5.43;;;;;;;;;;5000475;28;20490;-78
2022/08/27 08:23:31;;;;;;;7.80;5.30;;;;;;;;;;5011993;28;20041;-78
2022/08/27 08:25:58;;;;;;;8.20;5.80;;;;;;;;;;5013378;28;20353;-79
2022/08/27 08:28:24;;;;;;;7.22;5.28;;;;;;;;;;4997025;28;20092;-78
2022/08/27 08:30:51;;;;;;;8.32;5.50;;;;;;;;;;5015367;28;20046;-78
2022/08/27 08:33:17;;;;;;;6.90;5.22;;;;;;;;;;4997902;28;20040;-78
2022/08/27 08:35:43;;;;;;;7.07;5.18;;;;;;;;;;5013797;28;20072;-79
2022/08/27 08:38:09;;;;;;;8.23;5.30;;;;;;;;;;5014458;28;20065;-78
2022/08/27 08:40:39;;;;;;;7.70;5.63;;;;;;;;;;5012708;28;20038;-78
2022/08/27 08:43:07;;;;;;;8.98;5.65;;;;;;;;;;5011546;28;20429;-78
2022/08/27 08:45:35;;;;;;;8.27;5.63;;;;;;;;;;5004773;28;20030;-79
2022/08/27 08:48:06;;;;;;;14.52;5.88;;;;;;;;;;5004914;28;20023;-78
2022/08/27 08:50:51;;;;;;;7.43;5.43;;;;;;;;;;5019442;28;20026;-79
2022/08/27 08:53:36;;;;;;;7.38;5.15;;;;;;;;;;5022229;28;20026;-79
2022/08/27 08:56:05;;;;;;;8.40;4.97;;;;;;;;;;5018238;28;20049;-78
2022/08/27 08:58:43;;;;;;;8.35;5.97;;;;;;;;;;5011390;28;20028;-79
2022/08/27 09:01:09;;;;;;;8.20;5.80;;;;;;;;;;5021032;28;20081;-79
2022/08/27 09:03:40;;;;;;;8.10;5.90;;;;;;;;;;5024902;28;20040;-79
2022/08/27 09:06:25;;;;;;;9.13;6.88;;;;;;;;;;5015282;28;20026;-79
2022/08/27 09:08:51;;;;;;;6.40;5.20;;;;;;;;;;5016144;28;20026;-79
2022/08/27 09:11:17;;;;;;;7.07;5.22;;;;;;;;;;5021331;28;20085;-79
2022/08/27 09:13:47;;;;;;;9.48;5.85;;;;;;;;;;5004864;28;20098;-80
2022/08/27 09:16:13;;;;;;;8.02;5.47;;;;;;;;;;5017781;28;20034;-79
2022/08/27 09:18:41;;;;;;;7.63;5.43;;;;;;;;;;5024399;28;20034;-80
2022/08/27 09:21:07;;;;;;;10.27;6.32;;;;;;;;;;5026037;28;20092;-79
2022/08/27 09:23:39;;;;;;;8.02;5.70;;;;;;;;;;5025637;28;20034;-79
2022/08/27 09:26:16;;;;;;;8.73;5.93;;;;;;;;;;5026421;28;20081;-79
2022/08/27 09:31:27;;;;;;;7.80;5.43;;;;;;;;;;5024901;28;20033;-79
2022/08/27 09:33:53;;;;;;;8.00;5.68;;;;;;;;;;5003926;28;20025;-80
2022/08/27 09:36:19;;;;;;;7.75;5.40;;;;;;;;;;5018014;28;20057;-79
2022/08/27 09:38:53;;;;;;;8.68;5.90;;;;;;;;;;5020016;28;20049;-79
2022/08/27 09:41:24;;;;;;;7.57;5.28;;;;;;;;;;5026202;28;20447;-78
2022/08/27 09:43:57;;;;;;;8.70;5.32;;;;;;;;;;5020247;28;20025;-78
2022/08/27 09:46:24;;;;;;;8.20;6.30;;;;;;;;;;5016225;28;20026;-79
2022/08/27 09:48:50;;;;;;;7.65;5.97;;;;;;;;;;5022586;28;20030;-80
2022/08/27 09:51:19;;;;;;;10.52;6.13;;;;;;;;;;5007247;28;20034;-79
2022/08/27 09:53:59;;;;;;;8.45;5.93;;;;;;;;;;5024147;28;20102;-79
2022/08/27 09:56:33;;;;;;;7.40;5.78;;;;;;;;;;5005470;28;20104;-79
2022/08/27 09:59:13;;;;;;;7.15;5.35;;;;;;;;;;5018730;28;20032;-79
2022/08/27 10:01:50;;;;;;;8.27;6.13;;;;;;;;;;5025411;28;20056;-79
2022/08/27 10:04:17;;;;;;;11.68;6.40;;;;;;;;;;5024228;28;20022;-80
2022/08/27 10:06:50;;;;;;;10.93;6.00;;;;;;;;;;5016995;28;20048;-79
2022/08/27 10:09:24;;;;;;;8.45;6.15;;;;;;;;;;5017433;28;20024;-79
2022/08/27 10:11:59;;;;;;;7.90;6.10;;;;;;;;;;5000444;28;20110;-79
2022/08/27 10:14:45;;;;;;;9.68;7.07;;;;;;;;;;5018955;28;20131;-79
2022/08/27 10:17:36;;;;;;;7.95;6.15;;;;;;;;;;5014732;28;20042;-80
2022/08/27 10:20:08;;;;;;;8.45;6.88;;;;;;;;;;5019826;28;20029;-79
2022/08/27 10:22:34;;;;;;;;;;;;;;;;;;5026427;28;20030;-79
2022/08/27 10:25:00;;;;;;;8.52;6.57;;;;;;;;;;5012226;28;19917;-80
2022/08/27 10:27:53;;;;;;;8.48;6.60;;;;;;;;;;5013731;28;20053;-79
2022/08/27 10:30:22;;;;;;;8.60;6.38;;;;;;;;;;5006631;28;20045;-80
2022/08/27 10:32:48;;;;;;;9.27;7.10;;;;;;;;;;5020340;28;20026;-80
2022/08/27 10:35:20;;;;;;;10.55;6.65;;;;;;;;;;5007526;28;20514;-80
2022/08/27 10:37:59;;;;;;;26.48;14.35;;;;;;;;;;5024309;28;20104;-81
2022/08/27 10:40:28;;;;;;;8.88;6.45;;;;;;;;;;5023445;28;20584;-80
2022/08/27 10:42:54;;;;;;;9.20;6.30;;;;;;;;;;5025705;28;20037;-80
2022/08/27 10:45:31;;;;;;;7.63;6.70;;;;;;;;;;5024455;28;20112;-80
2022/08/27 10:48:15;;;;;;;8.13;6.40;;;;;;;;;;5022258;28;20032;-81
2022/08/27 10:50:49;;;;;;;8.90;6.68;;;;;;;;;;5023989;28;20089;-80
2022/08/27 10:53:18;;;;;;;8.20;6.18;;;;;;;;;;5016314;28;20027;-80
2022/08/27 10:55:50;;;;;;;7.88;6.57;;;;;;;;;;5008640;28;20097;-81
2022/08/27 10:58:35;;;;;;;8.43;6.37;;;;;;;;;;5023463;28;20036;-80
2022/08/27 11:01:01;;;;;;;7.95;6.80;;;;;;;;;;5022456;28;20026;-81
2022/08/27 11:03:33;;;;;;;8.98;7.45;;;;;;;;;;5002520;28;20065;-81
2022/08/27 11:06:01;;;;;;;9.38;7.30;;;;;;;;;;5000157;28;20022;-79
2022/08/27 11:08:32;;;;;;;8.68;7.07;;;;;;;;;;5019839;28;20084;-80
2022/08/27 11:11:01;;;;;;;8.30;6.07;;;;;;;;;;5011873;28;20009;-80
2022/08/27 11:13:37;;;;;;;9.48;6.45;;;;;;;;;;5018949;28;20059;-80
2022/08/27 11:16:06;;;;;;;8.73;6.45;;;;;;;;;;5014477;28;20014;-80
2022/08/27 11:18:32;;;;;;;9.35;6.65;;;;;;;;;;5013778;28;20034;-79
2022/08/27 11:21:01;;;;;;;10.10;6.88;;;;;;;;;;5020722;28;20535;-80
2022/08/27 11:23:31;;;;;;;8.75;6.80;;;;;;;;;;5015987;28;20034;-80
2022/08/27 11:25:59;;;;;;;9.27;6.78;;;;;;;;;;5019168;28;20026;-80
2022/08/27 11:28:36;;;;;;;8.57;6.90;;;;;;;;;;5013560;28;20022;-80
2022/08/27 11:31:21;;;;;;;8.75;6.38;;;;;;;;;;5014277;28;20026;-80
2022/08/27 11:33:52;;;;;;;8.82;6.65;;;;;;;;;;5007267;28;20426;-80
2022/08/27 11:36:39;;;;;;;8.35;6.57;;;;;;;;;;5014054;28;20112;-80
2022/08/27 11:39:05;;;;;;;8.95;6.28;;;;;;;;;;4999253;28;20050;-81
2022/08/27 11:41:50;;;;;;;8.13;6.60;;;;;;;;;;5019060;28;20398;-81
2022/08/27 11:44:18;;;;;;;9.85;6.68;;;;;;;;;;5007756;28;20646;-80
2022/08/27 11:46:48;;;;;;;9.60;6.72;;;;;;;;;;5012809;28;20030;-80
2022/08/27 11:49:23;;;;;;;12.32;7.07;;;;;;;;;;5008030;28;20029;-81
2022/08/27 11:51:56;;;;;;;9.50;6.72;;;;;;;;;;5017014;28;20026;-81
2022/08/27 11:54:43;;;;;;;10.80;6.75;;;;;;;;;;5016122;28;20030;-81
2022/08/27 11:57:16;;;;;;;9.77;6.50;;;;;;;;;;5022684;28;20026;-80
2022/08/27 11:59:42;;;;;;;10.43;6.20;;;;;;;;;;5019283;28;20029;-81
2022/08/27 12:02:20;;;;;;;9.75;6.10;;;;;;;;;;5019434;28;20030;-81
2022/08/27 12:04:46;;;;;;;8.85;5.50;;;;;;;;;;5019157;28;20034;-81
2022/08/27 12:07:20;;;;;;;9.02;6.30;;;;;;;;;;5017916;28;20037;-81
2022/08/27 12:10:06;;;;;;;8.68;6.25;;;;;;;;;;5015945;28;20041;-81
2022/08/27 12:12:45;;;;;;;8.93;6.10;;;;;;;;;;5021805;28;20037;-81
2022/08/27 12:15:21;;;;;;;9.85;6.55;;;;;;;;;;5018091;28;20041;-81
2022/08/27 12:17:57;;;;;;;8.85;6.32;;;;;;;;;;5003685;28;20042;-81
2022/08/27 12:20:29;;;;;;;8.40;6.80;;;;;;;;;;5018822;28;20026;-81
2022/08/27 12:25:58;;;;;;;9.00;6.90;;;;;;;;;;5025712;28;20041;-81
2022/08/27 12:28:25;;;;;;;7.93;6.10;;;;;;;;;;5024299;28;20050;-81
2022/08/27 12:30:51;;;;;;;8.32;6.15;;;;;;;;;;5028694;28;20053;-81
2022/08/27 12:33:17;;;;;;;9.70;6.55;;;;;;;;;;5021357;28;20022;-80
2022/08/27 12:35:51;;;;;;;10.05;6.68;;;;;;;;;;5020943;28;20079;-81
2022/08/27 12:38:26;;;;;;;8.85;7.10;;;;;;;;;;5019307;28;20040;-81
2022/08/27 12:40:54;;;;;;;11.73;6.90;;;;;;;;;;5026032;28;20053;-81
2022/08/27 12:43:20;;;;;;;9.43;7.05;;;;;;;;;;5022040;28;20034;-81
2022/08/27 12:45:48;;;;;;;8.57;6.65;;;;;;;;;;5019636;28;20105;-81
2022/08/27 12:48:18;;;;;;;9.85;7.10;;;;;;;;;;5027440;28;20057;-81
2022/08/27 12:50:50;;;;;;;8.57;6.13;;;;;;;;;;5029244;28;20014;-81
2022/08/27 12:53:34;;;;;;;7.60;6.45;;;;;;;;;;5020202;28;20035;-80
2022/08/27 12:56:20;;;;;;;7.55;6.22;;;;;;;;;;5008905;28;20030;-81
2022/08/27 12:58:45;;;;;;;9.32;6.50;;;;;;;;;;5016805;28;20092;-78
2022/08/27 13:01:30;;;;;;;8.55;6.38;;;;;;;;;;5030516;28;20030;-79
2022/08/27 13:03:59;;;;;;;9.43;7.30;;;;;;;;;;5007193;28;20038;-79
2022/08/27 13:06:33;;;;;;;12.02;6.70;;;;;;;;;;5026505;28;20018;-79
2022/08/27 13:09:00;;;;;;;8.50;6.63;;;;;;;;;;5020145;28;20033;-79
2022/08/27 13:11:29;;;;;;;9.68;6.95;;;;;;;;;;5021723;28;20030;-79
2022/08/27 13:14:08;;;;;;;8.30;6.70;;;;;;;;;;5025768;28;20057;-80
2022/08/27 13:16:36;;;;;;;8.48;6.35;;;;;;;;;;5027200;28;20064;-79
2022/08/27 13:19:04;;;;;;;9.13;6.70;;;;;;;;;;5025986;28;20029;-80
2022/08/27 13:21:31;;;;;;;8.32;6.20;;;;;;;;;;5022974;28;20037;-80
2022/08/27 13:24:05;;;;;;;7.75;6.18;;;;;;;;;;5025544;28;20028;-79
2022/08/27 13:26:33;;;;;;;9.15;6.50;;;;;;;;;;5013504;28;20101;-79
2022/08/27 13:29:01;;;;;;;8.50;6.05;;;;;;;;;;5019458;28;20030;-80
2022/08/27 13:31:28;;;;;;;9.63;6.30;;;;;;;;;;5026507;28;20021;-80
2022/08/27 13:33:57;;;;;;;9.32;6.18;;;;;;;;;;5023630;28;20041;-80
2022/08/27 13:36:30;;;;;;;9.77;6.88;;;;;;;;;;5023811;28;20029;-80
2022/08/27 13:38:58;;;;;;;9.13;6.70;;;;;;;;;;5013752;28;20026;-79
2022/08/27 13:41:28;;;;;;;8.40;6.10;;;;;;;;;;5026279;28;20465;-80
2022/08/27 13:43:55;;;;;;;9.80;7.00;;;;;;;;;;5027285;28;20033;-80
2022/08/27 13:46:26;;;;;;;9.57;6.30;;;;;;;;;;5017876;28;20061;-79
2022/08/27 13:48:53;;;;;;;7.25;6.20;;;;;;;;;;5024760;28;20013;-80
2022/08/27 13:51:30;;;;;;;8.32;5.97;;;;;;;;;;5024345;28;20026;-80
2022/08/27 13:54:12;;;;;;;9.38;6.38;;;;;;;;;;5012641;28;20053;-80
2022/08/27 13:56:40;;;;;;;9.43;6.55;;;;;;;;;;5006782;28;20086;-79
2022/08/27 13:59:12;;;;;;;8.98;6.22;;;;;;;;;;5022761;28;20057;-80
2022/08/27 14:01:38;;;;;;;;;;;;;;;;;;5024711;28;20022;-79
2022/08/27 14:04:06;;;;;;;8.88;6.40;;;;;;;;;;5027830;28;19905;-80
2022/08/27 14:06:34;;;;;;;8.35;6.10;;;;;;;;;;5011111;28;20037;-80
2022/08/27 14:09:17;;;;;;;11.25;6.75;;;;;;;;;;5023947;28;20045;-80
2022/08/27 14:11:44;;;;;;;8.95;6.00;;;;;;;;;;5024738;28;20021;-80
2022/08/27 14:14:10;;;;;;;11.65;6.57;;;;;;;;;;5026392;28;20116;-80
2022/08/27 14:16:38;;;;;;;9.43;6.32;;;;;;;;;;5026209;28;20046;-80
2022/08/27 14:19:12;;;;;;;8.73;6.05;;;;;;;;;;5023872;28;20521;-78
2022/08/27 14:21:40;;;;;;;7.50;5.85;;;;;;;;;;5012333;28;20057;-79
2022/08/27 14:24:06;;;;;;;10.40;6.22;;;;;;;;;;5023519;28;20544;-79
2022/08/27 14:26:32;;;;;;;10.82;6.40;;;;;;;;;;5025915;28;20026;-79
2022/08/27 14:28:59;;;;;;;10.10;6.32;;;;;;;;;;5023835;28;20531;-79
2022/08/27 14:31:26;;;;;;;12.63;7.30;;;;;;;;;;5024372;28;20026;-79
2022/08/27 14:33:55;;;;;;;8.50;6.50;;;;;;;;;;5022320;28;21716;-78
2022/08/27 14:36:22;;;;;;;9.60;6.00;;;;;;;;;;5024202;28;20029;-79
2022/08/27 14:38:49;;;;;;;9.80;6.65;;;;;;;;;;5023165;28;20021;-79
2022/08/27 14:41:16;;;;;;;8.32;6.18;;;;;;;;;;5023171;28;20448;-79
2022/08/27 14:43:42;;;;;;;9.00;6.53;;;;;;;;;;5025319;28;20436;-79
2022/08/27 14:46:12;;;;;;;9.32;6.50;;;;;;;;;;5021555;28;20497;-79
2022/08/27 14:48:42;;;;;;;9.10;6.40;;;;;;;;;;5021446;28;20018;-78
2022/08/27 14:51:11;;;;;;;9.43;6.20;;;;;;;;;;5023684;28;20018;-79
2022/08/27 14:53:37;;;;;;;10.43;6.55;;;;;;;;;;5022374;28;20060;-79
2022/08/27 14:56:03;;;;;;;7.30;6.07;;;;;;;;;;5016675;28;20032;-79
2022/08/27 14:58:29;;;;;;;8.30;6.10;;;;;;;;;;5016413;28;20030;-79
2022/08/27 15:00:56;;;;;;;8.60;6.78;;;;;;;;;;5022406;28;20049;-78